sensor_id;sensor_type;location;lat;lon;timestamp;temperature;humidity
7658;DHT22;8462;53.156;8.220;2022-12-20T00:00:06;11.60;85.90
7658;DHT22;8462;53.156;8.220;2022-12-20T00:02:33;11.60;86.00
7658;DHT22;8462;53.156;8.220;2022-12-20T00:05:00;11.60;86.20
7658;DHT22;8462;53.156;8.220;2022-12-20T00:07:29;11.60;86.20
7658;DHT22;8462;53.156;8.220;2022-12-20T00:09:55;11.60;86.20
7658;DHT22;8462;53.156;8.220;2022-12-20T00:12:23;11.60;86.20
7658;DHT22;8462;53.156;8.220;2022-12-20T00:14:50;11.70;86.20
7658;DHT22;8462;53.156;8.220;2022-12-20T00:17:16;11.80;86.00
7658;DHT22;8462;53.156;8.220;2022-12-20T00:19:43;11.80;86.10
7658;DHT22;8462;53.156;8.220;2022-12-20T00:22:10;11.80;86.00
7658;DHT22;8462;53.156;8.220;2022-12-20T00:24:38;11.80;85.90
7658;DHT22;8462;53.156;8.220;2022-12-20T00:27:05;11.80;85.90
7658;DHT22;8462;53.156;8.220;2022-12-20T00:29:32;11.80;86.00
7658;DHT22;8462;53.156;8.220;2022-12-20T00:31:59;11.80;86.10
7658;DHT22;8462;53.156;8.220;2022-12-20T00:34:26;11.90;86.20
7658;DHT22;8462;53.156;8.220;2022-12-20T00:36:55;11.90;86.20
7658;DHT22;8462;53.156;8.220;2022-12-20T00:39:22;11.90;86.20
7658;DHT22;8462;53.156;8.220;2022-12-20T00:41:50;12.00;86.10
7658;DHT22;8462;53.156;8.220;2022-12-20T00:44:17;12.00;86.10
7658;DHT22;8462;53.156;8.220;2022-12-20T00:46:44;11.90;86.20
7658;DHT22;8462;53.156;8.220;2022-12-20T00:49:11;12.00;86.00
7658;DHT22;8462;53.156;8.220;2022-12-20T00:51:38;12.00;85.90
7658;DHT22;8462;53.156;8.220;2022-12-20T00:54:05;11.90;86.00
7658;DHT22;8462;53.156;8.220;2022-12-20T00:56:32;11.90;86.10
7658;DHT22;8462;53.156;8.220;2022-12-20T00:59:00;11.80;86.40
7658;DHT22;8462;53.156;8.220;2022-12-20T01:01:28;11.90;86.40
7658;DHT22;8462;53.156;8.220;2022-12-20T01:03:56;11.90;86.30
7658;DHT22;8462;53.156;8.220;2022-12-20T01:06:23;11.90;86.30
7658;DHT22;8462;53.156;8.220;2022-12-20T01:08:51;11.90;86.20
7658;DHT22;8462;53.156;8.220;2022-12-20T01:11:20;11.90;86.40
7658;DHT22;8462;53.156;8.220;2022-12-20T01:13:49;12.00;86.50
7658;DHT22;8462;53.156;8.220;2022-12-20T01:16:20;12.00;86.00
7658;DHT22;8462;53.156;8.220;2022-12-20T01:18:48;11.90;86.10
7658;DHT22;8462;53.156;8.220;2022-12-20T01:21:17;11.90;86.30
7658;DHT22;8462;53.156;8.220;2022-12-20T01:23:45;11.90;86.40
7658;DHT22;8462;53.156;8.220;2022-12-20T01:26:14;11.90;86.70
7658;DHT22;8462;53.156;8.220;2022-12-20T01:28:43;11.90;86.80
7658;DHT22;8462;53.156;8.220;2022-12-20T01:31:13;11.90;86.80
7658;DHT22;8462;53.156;8.220;2022-12-20T01:33:42;11.90;86.80
7658;DHT22;8462;53.156;8.220;2022-12-20T01:36:11;12.00;86.70
7658;DHT22;8462;53.156;8.220;2022-12-20T01:38:38;12.00;86.70
7658;DHT22;8462;53.156;8.220;2022-12-20T01:41:06;12.10;86.70
7658;DHT22;8462;53.156;8.220;2022-12-20T01:43:49;12.10;86.40
7658;DHT22;8462;53.156;8.220;2022-12-20T01:46:16;12.10;86.60
7658;DHT22;8462;53.156;8.220;2022-12-20T01:48:49;12.10;86.60
7658;DHT22;8462;53.156;8.220;2022-12-20T01:51:18;12.10;86.50
7658;DHT22;8462;53.156;8.220;2022-12-20T01:53:46;12.10;86.40
7658;DHT22;8462;53.156;8.220;2022-12-20T01:56:14;12.10;86.40
7658;DHT22;8462;53.156;8.220;2022-12-20T01:58:42;12.00;86.60
7658;DHT22;8462;53.156;8.220;2022-12-20T02:01:13;12.00;87.80
7658;DHT22;8462;53.156;8.220;2022-12-20T02:03:41;12.00;86.90
7658;DHT22;8462;53.156;8.220;2022-12-20T02:06:19;12.00;86.90
7658;DHT22;8462;53.156;8.220;2022-12-20T02:08:49;12.00;86.70
7658;DHT22;8462;53.156;8.220;2022-12-20T02:11:34;12.10;86.80
7658;DHT22;8462;53.156;8.220;2022-12-20T02:14:09;12.00;86.70
7658;DHT22;8462;53.156;8.220;2022-12-20T02:16:44;12.00;86.70
7658;DHT22;8462;53.156;8.220;2022-12-20T02:19:31;12.10;86.80
7658;DHT22;8462;53.156;8.220;2022-12-20T02:22:13;12.10;86.70
7658;DHT22;8462;53.156;8.220;2022-12-20T02:25:05;12.10;86.80
7658;DHT22;8462;53.156;8.220;2022-12-20T02:27:45;12.10;86.70
7658;DHT22;8462;53.156;8.220;2022-12-20T02:30:18;12.10;86.70
7658;DHT22;8462;53.156;8.220;2022-12-20T02:32:51;12.00;86.80
7658;DHT22;8462;53.156;8.220;2022-12-20T02:35:24;12.10;86.70
7658;DHT22;8462;53.156;8.220;2022-12-20T02:37:53;12.10;86.60
7658;DHT22;8462;53.156;8.220;2022-12-20T02:40:23;12.10;86.70
7658;DHT22;8462;53.156;8.220;2022-12-20T02:42:54;12.10;86.70
7658;DHT22;8462;53.156;8.220;2022-12-20T02:45:26;12.10;86.60
7658;DHT22;8462;53.156;8.220;2022-12-20T02:47:57;12.10;86.80
7658;DHT22;8462;53.156;8.220;2022-12-20T02:50:27;12.10;86.80
7658;DHT22;8462;53.156;8.220;2022-12-20T02:52:57;12.10;86.60
7658;DHT22;8462;53.156;8.220;2022-12-20T02:55:31;12.10;86.90
7658;DHT22;8462;53.156;8.220;2022-12-20T02:58:04;12.00;86.80
7658;DHT22;8462;53.156;8.220;2022-12-20T03:00:38;12.00;86.90
7658;DHT22;8462;53.156;8.220;2022-12-20T03:03:06;12.00;87.20
7658;DHT22;8462;53.156;8.220;2022-12-20T03:05:50;12.00;87.20
7658;DHT22;8462;53.156;8.220;2022-12-20T03:08:18;12.00;86.90
7658;DHT22;8462;53.156;8.220;2022-12-20T03:10:48;12.00;87.00
7658;DHT22;8462;53.156;8.220;2022-12-20T03:13:15;12.00;87.10
7658;DHT22;8462;53.156;8.220;2022-12-20T03:15:49;12.10;87.30
7658;DHT22;8462;53.156;8.220;2022-12-20T03:18:17;12.10;86.90
7658;DHT22;8462;53.156;8.220;2022-12-20T03:20:44;12.10;87.00
7658;DHT22;8462;53.156;8.220;2022-12-20T03:23:11;12.10;87.00
7658;DHT22;8462;53.156;8.220;2022-12-20T03:25:38;12.20;87.00
7658;DHT22;8462;53.156;8.220;2022-12-20T03:28:06;12.20;87.00
7658;DHT22;8462;53.156;8.220;2022-12-20T03:30:35;12.20;87.00
7658;DHT22;8462;53.156;8.220;2022-12-20T03:33:04;12.20;87.10
7658;DHT22;8462;53.156;8.220;2022-12-20T03:35:31;12.20;87.10
7658;DHT22;8462;53.156;8.220;2022-12-20T03:37:59;12.20;87.30
7658;DHT22;8462;53.156;8.220;2022-12-20T03:40:26;12.20;87.50
7658;DHT22;8462;53.156;8.220;2022-12-20T03:42:53;12.20;87.50
7658;DHT22;8462;53.156;8.220;2022-12-20T03:45:20;12.20;87.60
7658;DHT22;8462;53.156;8.220;2022-12-20T03:47:47;12.20;88.10
7658;DHT22;8462;53.156;8.220;2022-12-20T03:50:16;12.10;87.70
7658;DHT22;8462;53.156;8.220;2022-12-20T03:52:43;12.20;87.90
7658;DHT22;8462;53.156;8.220;2022-12-20T03:55:09;12.20;88.00
7658;DHT22;8462;53.156;8.220;2022-12-20T03:57:39;12.20;88.00
7658;DHT22;8462;53.156;8.220;2022-12-20T04:00:21;12.20;87.90
7658;DHT22;8462;53.156;8.220;2022-12-20T04:02:53;12.20;88.10
7658;DHT22;8462;53.156;8.220;2022-12-20T04:05:23;12.10;88.00
7658;DHT22;8462;53.156;8.220;2022-12-20T04:07:50;12.10;88.40
7658;DHT22;8462;53.156;8.220;2022-12-20T04:10:17;12.20;88.40
7658;DHT22;8462;53.156;8.220;2022-12-20T04:12:44;12.10;88.40
7658;DHT22;8462;53.156;8.220;2022-12-20T04:15:13;12.20;88.40
7658;DHT22;8462;53.156;8.220;2022-12-20T04:17:41;12.20;88.50
7658;DHT22;8462;53.156;8.220;2022-12-20T04:20:12;12.20;88.30
7658;DHT22;8462;53.156;8.220;2022-12-20T04:22:54;12.20;88.40
7658;DHT22;8462;53.156;8.220;2022-12-20T04:25:21;12.20;88.60
7658;DHT22;8462;53.156;8.220;2022-12-20T04:27:49;12.20;88.60
7658;DHT22;8462;53.156;8.220;2022-12-20T04:30:16;12.20;88.50
7658;DHT22;8462;53.156;8.220;2022-12-20T04:32:43;12.20;88.60
7658;DHT22;8462;53.156;8.220;2022-12-20T04:35:10;12.20;88.60
7658;DHT22;8462;53.156;8.220;2022-12-20T04:37:40;12.20;88.90
7658;DHT22;8462;53.156;8.220;2022-12-20T04:40:10;12.20;88.80
7658;DHT22;8462;53.156;8.220;2022-12-20T04:42:44;12.20;88.80
7658;DHT22;8462;53.156;8.220;2022-12-20T04:45:13;12.20;88.80
7658;DHT22;8462;53.156;8.220;2022-12-20T04:47:40;12.20;89.00
7658;DHT22;8462;53.156;8.220;2022-12-20T04:50:09;12.20;88.90
7658;DHT22;8462;53.156;8.220;2022-12-20T04:52:36;12.20;88.90
7658;DHT22;8462;53.156;8.220;2022-12-20T04:55:22;12.20;89.20
7658;DHT22;8462;53.156;8.220;2022-12-20T04:57:48;12.20;89.30
7658;DHT22;8462;53.156;8.220;2022-12-20T05:00:16;12.20;89.30
7658;DHT22;8462;53.156;8.220;2022-12-20T05:02:48;12.20;89.20
7658;DHT22;8462;53.156;8.220;2022-12-20T05:05:18;12.20;89.40
7658;DHT22;8462;53.156;8.220;2022-12-20T05:07:49;12.20;89.00
7658;DHT22;8462;53.156;8.220;2022-12-20T05:10:17;12.10;89.00
7658;DHT22;8462;53.156;8.220;2022-12-20T05:12:45;12.10;89.30
7658;DHT22;8462;53.156;8.220;2022-12-20T05:15:20;12.10;89.30
7658;DHT22;8462;53.156;8.220;2022-12-20T05:17:47;12.10;89.40
7658;DHT22;8462;53.156;8.220;2022-12-20T05:20:15;12.10;89.60
7658;DHT22;8462;53.156;8.220;2022-12-20T05:22:44;12.00;89.50
7658;DHT22;8462;53.156;8.220;2022-12-20T05:25:28;12.00;89.80
7658;DHT22;8462;53.156;8.220;2022-12-20T05:28:15;12.00;90.20
7658;DHT22;8462;53.156;8.220;2022-12-20T05:30:42;12.00;90.20
7658;DHT22;8462;53.156;8.220;2022-12-20T05:33:09;12.00;90.30
7658;DHT22;8462;53.156;8.220;2022-12-20T05:35:37;12.10;90.30
7658;DHT22;8462;53.156;8.220;2022-12-20T05:38:09;12.10;90.40
7658;DHT22;8462;53.156;8.220;2022-12-20T05:40:38;12.10;90.60
7658;DHT22;8462;53.156;8.220;2022-12-20T05:43:07;12.10;90.70
7658;DHT22;8462;53.156;8.220;2022-12-20T05:45:44;12.10;90.70
7658;DHT22;8462;53.156;8.220;2022-12-20T05:48:13;12.10;90.80
7658;DHT22;8462;53.156;8.220;2022-12-20T05:50:43;12.20;90.90
7658;DHT22;8462;53.156;8.220;2022-12-20T05:53:29;12.30;90.90
7658;DHT22;8462;53.156;8.220;2022-12-20T05:56:00;12.20;91.10
7658;DHT22;8462;53.156;8.220;2022-12-20T05:58:30;12.20;91.20
7658;DHT22;8462;53.156;8.220;2022-12-20T06:01:01;12.20;91.30
7658;DHT22;8462;53.156;8.220;2022-12-20T06:03:32;12.20;91.40
7658;DHT22;8462;53.156;8.220;2022-12-20T06:06:03;12.20;91.40
7658;DHT22;8462;53.156;8.220;2022-12-20T06:08:31;12.20;91.50
7658;DHT22;8462;53.156;8.220;2022-12-20T06:11:01;12.20;91.60
7658;DHT22;8462;53.156;8.220;2022-12-20T06:13:32;12.20;91.80
7658;DHT22;8462;53.156;8.220;2022-12-20T06:16:00;12.20;92.20
7658;DHT22;8462;53.156;8.220;2022-12-20T06:18:28;12.20;92.20
7658;DHT22;8462;53.156;8.220;2022-12-20T06:20:59;12.20;92.10
7658;DHT22;8462;53.156;8.220;2022-12-20T06:23:27;12.20;92.10
7658;DHT22;8462;53.156;8.220;2022-12-20T06:26:06;12.20;92.30
7658;DHT22;8462;53.156;8.220;2022-12-20T06:28:37;12.20;92.30
7658;DHT22;8462;53.156;8.220;2022-12-20T06:31:09;12.20;92.30
7658;DHT22;8462;53.156;8.220;2022-12-20T06:33:43;12.30;92.30
7658;DHT22;8462;53.156;8.220;2022-12-20T06:36:12;12.30;92.20
7658;DHT22;8462;53.156;8.220;2022-12-20T06:38:39;12.30;92.10
7658;DHT22;8462;53.156;8.220;2022-12-20T06:41:06;12.40;91.90
7658;DHT22;8462;53.156;8.220;2022-12-20T06:43:33;12.40;91.90
7658;DHT22;8462;53.156;8.220;2022-12-20T06:46:00;12.40;92.20
7658;DHT22;8462;53.156;8.220;2022-12-20T06:48:29;12.40;91.90
7658;DHT22;8462;53.156;8.220;2022-12-20T06:50:57;12.40;91.50
7658;DHT22;8462;53.156;8.220;2022-12-20T06:53:26;12.50;91.50
7658;DHT22;8462;53.156;8.220;2022-12-20T06:55:53;12.50;91.30
7658;DHT22;8462;53.156;8.220;2022-12-20T06:58:20;12.50;91.20
7658;DHT22;8462;53.156;8.220;2022-12-20T07:00:48;12.50;91.00
7658;DHT22;8462;53.156;8.220;2022-12-20T07:03:15;12.50;91.00
7658;DHT22;8462;53.156;8.220;2022-12-20T07:05:43;12.50;90.90
7658;DHT22;8462;53.156;8.220;2022-12-20T07:08:11;12.50;90.90
7658;DHT22;8462;53.156;8.220;2022-12-20T07:10:40;12.50;90.90
7658;DHT22;8462;53.156;8.220;2022-12-20T07:13:07;12.50;90.80
7658;DHT22;8462;53.156;8.220;2022-12-20T07:15:34;12.50;90.70
7658;DHT22;8462;53.156;8.220;2022-12-20T07:18:01;12.60;90.60
7658;DHT22;8462;53.156;8.220;2022-12-20T07:20:28;12.60;90.60
7658;DHT22;8462;53.156;8.220;2022-12-20T07:22:56;12.60;90.40
7658;DHT22;8462;53.156;8.220;2022-12-20T07:25:26;12.60;90.50
7658;DHT22;8462;53.156;8.220;2022-12-20T07:27:53;12.60;90.30
7658;DHT22;8462;53.156;8.220;2022-12-20T07:30:20;12.60;90.30
7658;DHT22;8462;53.156;8.220;2022-12-20T07:32:47;12.60;90.30
7658;DHT22;8462;53.156;8.220;2022-12-20T07:35:14;12.60;90.30
7658;DHT22;8462;53.156;8.220;2022-12-20T07:37:42;12.60;90.30
7658;DHT22;8462;53.156;8.220;2022-12-20T07:40:11;12.60;90.20
7658;DHT22;8462;53.156;8.220;2022-12-20T07:42:39;12.60;90.40
7658;DHT22;8462;53.156;8.220;2022-12-20T07:45:07;12.60;90.30
7658;DHT22;8462;53.156;8.220;2022-12-20T07:47:34;12.50;90.30
7658;DHT22;8462;53.156;8.220;2022-12-20T07:50:04;12.60;90.40
7658;DHT22;8462;53.156;8.220;2022-12-20T07:52:33;12.60;90.30
7658;DHT22;8462;53.156;8.220;2022-12-20T07:55:02;12.60;90.30
7658;DHT22;8462;53.156;8.220;2022-12-20T07:57:36;12.60;90.30
7658;DHT22;8462;53.156;8.220;2022-12-20T08:00:05;12.60;90.30
7658;DHT22;8462;53.156;8.220;2022-12-20T08:02:42;12.70;90.20
7658;DHT22;8462;53.156;8.220;2022-12-20T08:05:13;12.70;90.10
7658;DHT22;8462;53.156;8.220;2022-12-20T08:07:42;12.80;90.20
7658;DHT22;8462;53.156;8.220;2022-12-20T08:10:13;12.80;90.10
7658;DHT22;8462;53.156;8.220;2022-12-20T08:12:44;12.80;90.10
7658;DHT22;8462;53.156;8.220;2022-12-20T08:15:12;12.80;90.10
7658;DHT22;8462;53.156;8.220;2022-12-20T08:17:41;12.80;90.20
7658;DHT22;8462;53.156;8.220;2022-12-20T08:20:10;12.80;90.30
7658;DHT22;8462;53.156;8.220;2022-12-20T08:22:37;12.80;90.70
7658;DHT22;8462;53.156;8.220;2022-12-20T08:25:06;12.80;90.80
7658;DHT22;8462;53.156;8.220;2022-12-20T08:27:33;12.70;91.10
7658;DHT22;8462;53.156;8.220;2022-12-20T08:30:03;12.60;91.40
7658;DHT22;8462;53.156;8.220;2022-12-20T08:32:30;12.60;91.60
7658;DHT22;8462;53.156;8.220;2022-12-20T08:34:57;12.60;91.70
7658;DHT22;8462;53.156;8.220;2022-12-20T08:37:24;12.60;91.80
7658;DHT22;8462;53.156;8.220;2022-12-20T08:39:51;12.70;91.90
7658;DHT22;8462;53.156;8.220;2022-12-20T08:42:18;12.70;91.80
7658;DHT22;8462;53.156;8.220;2022-12-20T08:44:45;12.70;91.80
7658;DHT22;8462;53.156;8.220;2022-12-20T08:47:13;12.70;91.90
7658;DHT22;8462;53.156;8.220;2022-12-20T08:49:40;12.70;91.90
7658;DHT22;8462;53.156;8.220;2022-12-20T08:52:07;12.80;92.00
7658;DHT22;8462;53.156;8.220;2022-12-20T08:54:34;12.80;92.00
7658;DHT22;8462;53.156;8.220;2022-12-20T08:57:01;12.80;91.90
7658;DHT22;8462;53.156;8.220;2022-12-20T08:59:34;12.90;91.90
7658;DHT22;8462;53.156;8.220;2022-12-20T09:02:01;12.90;91.80
7658;DHT22;8462;53.156;8.220;2022-12-20T09:04:30;12.90;91.90
7658;DHT22;8462;53.156;8.220;2022-12-20T09:06:57;13.00;91.80
7658;DHT22;8462;53.156;8.220;2022-12-20T09:09:23;13.10;91.60
7658;DHT22;8462;53.156;8.220;2022-12-20T09:11:50;13.20;91.40
7658;DHT22;8462;53.156;8.220;2022-12-20T09:14:17;13.20;91.30
7658;DHT22;8462;53.156;8.220;2022-12-20T09:16:44;13.30;91.00
7658;DHT22;8462;53.156;8.220;2022-12-20T09:19:13;13.40;91.00
7658;DHT22;8462;53.156;8.220;2022-12-20T09:21:41;13.50;90.80
7658;DHT22;8462;53.156;8.220;2022-12-20T09:24:09;13.50;90.40
7658;DHT22;8462;53.156;8.220;2022-12-20T09:26:36;13.60;90.40
7658;DHT22;8462;53.156;8.220;2022-12-20T09:29:08;13.60;90.00
7658;DHT22;8462;53.156;8.220;2022-12-20T09:31:37;13.60;89.90
7658;DHT22;8462;53.156;8.220;2022-12-20T09:34:05;13.60;89.60
7658;DHT22;8462;53.156;8.220;2022-12-20T09:36:33;13.70;89.70
7658;DHT22;8462;53.156;8.220;2022-12-20T09:39:02;13.80;89.00
7658;DHT22;8462;53.156;8.220;2022-12-20T09:41:32;13.80;88.60
7658;DHT22;8462;53.156;8.220;2022-12-20T09:44:06;13.90;88.00
7658;DHT22;8462;53.156;8.220;2022-12-20T09:46:37;14.00;88.00
7658;DHT22;8462;53.156;8.220;2022-12-20T09:49:05;14.10;87.20
7658;DHT22;8462;53.156;8.220;2022-12-20T09:51:51;14.20;87.20
7658;DHT22;8462;53.156;8.220;2022-12-20T09:54:26;14.40;86.40
7658;DHT22;8462;53.156;8.220;2022-12-20T09:57:02;14.30;85.80
7658;DHT22;8462;53.156;8.220;2022-12-20T09:59:33;14.40;85.50
7658;DHT22;8462;53.156;8.220;2022-12-20T10:02:01;14.30;84.60
7658;DHT22;8462;53.156;8.220;2022-12-20T10:04:34;14.30;84.60
7658;DHT22;8462;53.156;8.220;2022-12-20T10:07:11;14.20;84.80
7658;DHT22;8462;53.156;8.220;2022-12-20T10:10:01;14.20;85.00
7658;DHT22;8462;53.156;8.220;2022-12-20T10:12:36;14.20;84.60
7658;DHT22;8462;53.156;8.220;2022-12-20T10:15:19;14.10;84.50
7658;DHT22;8462;53.156;8.220;2022-12-20T10:17:57;14.20;84.90
7658;DHT22;8462;53.156;8.220;2022-12-20T10:20:39;14.30;84.60
7658;DHT22;8462;53.156;8.220;2022-12-20T10:23:14;14.30;84.20
7658;DHT22;8462;53.156;8.220;2022-12-20T10:25:47;14.20;84.10
7658;DHT22;8462;53.156;8.220;2022-12-20T10:28:16;14.30;84.00
7658;DHT22;8462;53.156;8.220;2022-12-20T10:30:43;14.30;83.80
7658;DHT22;8462;53.156;8.220;2022-12-20T10:33:16;14.30;83.50
7658;DHT22;8462;53.156;8.220;2022-12-20T10:35:46;14.40;83.30
7658;DHT22;8462;53.156;8.220;2022-12-20T10:38:14;14.50;83.40
7658;DHT22;8462;53.156;8.220;2022-12-20T10:40:44;14.50;83.50
7658;DHT22;8462;53.156;8.220;2022-12-20T10:43:16;14.50;82.60
7658;DHT22;8462;53.156;8.220;2022-12-20T10:45:53;14.50;82.60
7658;DHT22;8462;53.156;8.220;2022-12-20T10:48:32;14.50;82.70
7658;DHT22;8462;53.156;8.220;2022-12-20T10:51:01;14.50;82.80
7658;DHT22;8462;53.156;8.220;2022-12-20T10:53:29;14.50;82.80
7658;DHT22;8462;53.156;8.220;2022-12-20T10:56:12;14.40;82.70
7658;DHT22;8462;53.156;8.220;2022-12-20T10:58:51;14.50;83.20
7658;DHT22;8462;53.156;8.220;2022-12-20T11:01:21;14.40;83.00
7658;DHT22;8462;53.156;8.220;2022-12-20T11:03:51;14.20;83.50
7658;DHT22;8462;53.156;8.220;2022-12-20T11:06:20;14.20;84.00
7658;DHT22;8462;53.156;8.220;2022-12-20T11:08:47;14.20;84.20
7658;DHT22;8462;53.156;8.220;2022-12-20T11:11:18;14.10;84.50
7658;DHT22;8462;53.156;8.220;2022-12-20T11:13:49;14.10;84.80
7658;DHT22;8462;53.156;8.220;2022-12-20T11:16:33;14.00;85.20
7658;DHT22;8462;53.156;8.220;2022-12-20T11:22:06;13.90;85.80
7658;DHT22;8462;53.156;8.220;2022-12-20T11:24:47;13.90;86.40
7658;DHT22;8462;53.156;8.220;2022-12-20T11:27:22;13.80;86.60
7658;DHT22;8462;53.156;8.220;2022-12-20T11:30:05;13.80;86.90
7658;DHT22;8462;53.156;8.220;2022-12-20T11:33:02;13.70;87.30
7658;DHT22;8462;53.156;8.220;2022-12-20T11:35:41;13.70;87.70
7658;DHT22;8462;53.156;8.220;2022-12-20T11:38:21;13.60;88.00
7658;DHT22;8462;53.156;8.220;2022-12-20T11:40:54;13.60;88.50
7658;DHT22;8462;53.156;8.220;2022-12-20T11:43:43;13.50;88.60
7658;DHT22;8462;53.156;8.220;2022-12-20T11:46:24;13.40;89.10
7658;DHT22;8462;53.156;8.220;2022-12-20T11:49:11;13.40;89.50
7658;DHT22;8462;53.156;8.220;2022-12-20T11:51:45;13.40;90.00
7658;DHT22;8462;53.156;8.220;2022-12-20T11:54:18;13.40;90.10
7658;DHT22;8462;53.156;8.220;2022-12-20T11:56:49;13.40;90.20
7658;DHT22;8462;53.156;8.220;2022-12-20T11:59:21;13.40;90.50
7658;DHT22;8462;53.156;8.220;2022-12-20T12:01:58;13.50;90.20
7658;DHT22;8462;53.156;8.220;2022-12-20T12:04:30;13.50;90.20
7658;DHT22;8462;53.156;8.220;2022-12-20T12:07:02;13.50;90.20
7658;DHT22;8462;53.156;8.220;2022-12-20T12:09:34;13.50;90.30
7658;DHT22;8462;53.156;8.220;2022-12-20T12:12:05;13.50;90.40
7658;DHT22;8462;53.156;8.220;2022-12-20T12:14:44;13.50;90.50
7658;DHT22;8462;53.156;8.220;2022-12-20T12:17:19;13.40;90.60
7658;DHT22;8462;53.156;8.220;2022-12-20T12:19:49;13.40;90.60
7658;DHT22;8462;53.156;8.220;2022-12-20T12:22:21;13.40;90.70
7658;DHT22;8462;53.156;8.220;2022-12-20T12:24:54;13.40;90.70
7658;DHT22;8462;53.156;8.220;2022-12-20T12:27:25;13.40;90.80
7658;DHT22;8462;53.156;8.220;2022-12-20T12:29:55;13.50;90.80
7658;DHT22;8462;53.156;8.220;2022-12-20T12:32:28;13.50;90.90
7658;DHT22;8462;53.156;8.220;2022-12-20T12:35:11;13.40;91.00
7658;DHT22;8462;53.156;8.220;2022-12-20T12:38:03;13.50;91.00
7658;DHT22;8462;53.156;8.220;2022-12-20T12:41:12;13.40;91.10
7658;DHT22;8462;53.156;8.220;2022-12-20T12:43:49;13.40;91.10
7658;DHT22;8462;53.156;8.220;2022-12-20T12:46:21;13.40;91.20
7658;DHT22;8462;53.156;8.220;2022-12-20T12:48:56;13.40;91.20
7658;DHT22;8462;53.156;8.220;2022-12-20T12:51:28;13.40;91.20
7658;DHT22;8462;53.156;8.220;2022-12-20T12:54:03;13.40;91.70
7658;DHT22;8462;53.156;8.220;2022-12-20T12:56:38;13.40;91.20
7658;DHT22;8462;53.156;8.220;2022-12-20T13:02:34;13.40;91.20
7658;DHT22;8462;53.156;8.220;2022-12-20T13:05:33;13.40;91.30
7658;DHT22;8462;53.156;8.220;2022-12-20T13:08:01;13.40;91.30
7658;DHT22;8462;53.156;8.220;2022-12-20T13:13:33;13.50;91.30
7658;DHT22;8462;53.156;8.220;2022-12-20T13:16:12;13.40;91.30
7658;DHT22;8462;53.156;8.220;2022-12-20T13:18:59;13.40;91.60
7658;DHT22;8462;53.156;8.220;2022-12-20T13:21:37;13.30;91.70
7658;DHT22;8462;53.156;8.220;2022-12-20T13:27:26;13.30;92.00
7658;DHT22;8462;53.156;8.220;2022-12-20T13:33:24;13.30;92.10
7658;DHT22;8462;53.156;8.220;2022-12-20T13:36:29;13.30;92.10
7658;DHT22;8462;53.156;8.220;2022-12-20T13:39:01;13.30;92.10
7658;DHT22;8462;53.156;8.220;2022-12-20T13:41:37;13.30;92.00
7658;DHT22;8462;53.156;8.220;2022-12-20T13:44:35;13.30;92.10
7658;DHT22;8462;53.156;8.220;2022-12-20T13:47:11;13.40;92.00
7658;DHT22;8462;53.156;8.220;2022-12-20T13:49:42;13.40;92.00
7658;DHT22;8462;53.156;8.220;2022-12-20T13:52:22;13.40;92.00
7658;DHT22;8462;53.156;8.220;2022-12-20T13:54:54;13.40;92.00
7658;DHT22;8462;53.156;8.220;2022-12-20T13:57:27;13.40;91.80
7658;DHT22;8462;53.156;8.220;2022-12-20T13:59:58;13.40;91.80
7658;DHT22;8462;53.156;8.220;2022-12-20T14:02:28;13.40;91.70
7658;DHT22;8462;53.156;8.220;2022-12-20T14:04:58;13.40;91.70
7658;DHT22;8462;53.156;8.220;2022-12-20T14:07:27;13.30;91.80
7658;DHT22;8462;53.156;8.220;2022-12-20T14:09:58;13.30;91.80
7658;DHT22;8462;53.156;8.220;2022-12-20T14:12:27;13.30;91.90
7658;DHT22;8462;53.156;8.220;2022-12-20T14:14:54;13.30;91.80
7658;DHT22;8462;53.156;8.220;2022-12-20T14:17:26;13.30;92.20
7658;DHT22;8462;53.156;8.220;2022-12-20T14:20:11;13.30;91.90
7658;DHT22;8462;53.156;8.220;2022-12-20T14:22:48;13.20;91.90
7658;DHT22;8462;53.156;8.220;2022-12-20T14:25:27;13.20;92.10
7658;DHT22;8462;53.156;8.220;2022-12-20T14:27:55;13.20;92.20
7658;DHT22;8462;53.156;8.220;2022-12-20T14:30:28;13.10;92.20
7658;DHT22;8462;53.156;8.220;2022-12-20T14:32:55;13.10;92.30
7658;DHT22;8462;53.156;8.220;2022-12-20T14:35:22;13.10;92.40
7658;DHT22;8462;53.156;8.220;2022-12-20T14:37:55;13.10;92.60
7658;DHT22;8462;53.156;8.220;2022-12-20T14:40:23;13.10;92.60
7658;DHT22;8462;53.156;8.220;2022-12-20T14:42:50;13.10;92.60
7658;DHT22;8462;53.156;8.220;2022-12-20T14:45:21;13.10;92.50
7658;DHT22;8462;53.156;8.220;2022-12-20T14:47:59;13.20;92.60
7658;DHT22;8462;53.156;8.220;2022-12-20T14:50:30;13.20;92.60
7658;DHT22;8462;53.156;8.220;2022-12-20T14:52:57;13.20;92.40
7658;DHT22;8462;53.156;8.220;2022-12-20T14:55:31;13.20;92.40
7658;DHT22;8462;53.156;8.220;2022-12-20T14:57:58;13.10;92.50
7658;DHT22;8462;53.156;8.220;2022-12-20T15:00:30;13.20;92.50
7658;DHT22;8462;53.156;8.220;2022-12-20T15:03:00;13.20;92.50
7658;DHT22;8462;53.156;8.220;2022-12-20T15:05:46;13.20;92.60
7658;DHT22;8462;53.156;8.220;2022-12-20T15:08:16;13.20;92.50
7658;DHT22;8462;53.156;8.220;2022-12-20T15:10:51;13.20;92.50
7658;DHT22;8462;53.156;8.220;2022-12-20T15:13:21;13.20;92.40
7658;DHT22;8462;53.156;8.220;2022-12-20T15:15:48;13.20;92.40
7658;DHT22;8462;53.156;8.220;2022-12-20T15:18:16;13.20;92.40
7658;DHT22;8462;53.156;8.220;2022-12-20T15:20:45;13.20;92.40
7658;DHT22;8462;53.156;8.220;2022-12-20T15:23:15;13.30;92.40
7658;DHT22;8462;53.156;8.220;2022-12-20T15:25:43;13.30;92.30
7658;DHT22;8462;53.156;8.220;2022-12-20T15:28:17;13.30;92.20
7658;DHT22;8462;53.156;8.220;2022-12-20T15:30:45;13.30;92.20
7658;DHT22;8462;53.156;8.220;2022-12-20T15:33:15;13.30;92.20
7658;DHT22;8462;53.156;8.220;2022-12-20T15:35:43;13.30;92.10
7658;DHT22;8462;53.156;8.220;2022-12-20T15:38:15;13.30;92.30
7658;DHT22;8462;53.156;8.220;2022-12-20T15:40:44;13.30;92.10
7658;DHT22;8462;53.156;8.220;2022-12-20T15:43:13;13.20;92.10
7658;DHT22;8462;53.156;8.220;2022-12-20T15:45:44;13.20;92.10
7658;DHT22;8462;53.156;8.220;2022-12-20T15:48:16;13.20;92.20
7658;DHT22;8462;53.156;8.220;2022-12-20T15:50:48;13.30;92.30
7658;DHT22;8462;53.156;8.220;2022-12-20T15:53:17;13.30;92.10
7658;DHT22;8462;53.156;8.220;2022-12-20T15:55:49;13.30;92.10
7658;DHT22;8462;53.156;8.220;2022-12-20T15:58:16;13.30;92.20
7658;DHT22;8462;53.156;8.220;2022-12-20T16:00:44;13.30;92.20
7658;DHT22;8462;53.156;8.220;2022-12-20T16:03:20;13.30;92.20
7658;DHT22;8462;53.156;8.220;2022-12-20T16:05:47;13.30;92.30
7658;DHT22;8462;53.156;8.220;2022-12-20T16:08:15;13.30;92.20
7658;DHT22;8462;53.156;8.220;2022-12-20T16:10:43;13.30;92.20
7658;DHT22;8462;53.156;8.220;2022-12-20T16:13:13;13.30;92.20
7658;DHT22;8462;53.156;8.220;2022-12-20T16:15:41;13.30;92.10
7658;DHT22;8462;53.156;8.220;2022-12-20T16:18:09;13.30;92.30
7658;DHT22;8462;53.156;8.220;2022-12-20T16:20:36;13.30;92.20
7658;DHT22;8462;53.156;8.220;2022-12-20T16:23:04;13.30;92.30
7658;DHT22;8462;53.156;8.220;2022-12-20T16:25:34;13.30;92.30
7658;DHT22;8462;53.156;8.220;2022-12-20T16:28:02;13.30;92.30
7658;DHT22;8462;53.156;8.220;2022-12-20T16:30:29;13.30;92.30
7658;DHT22;8462;53.156;8.220;2022-12-20T16:32:56;13.30;92.30
7658;DHT22;8462;53.156;8.220;2022-12-20T16:35:28;13.30;92.40
7658;DHT22;8462;53.156;8.220;2022-12-20T16:37:56;13.30;92.30
7658;DHT22;8462;53.156;8.220;2022-12-20T16:40:26;13.40;92.30
7658;DHT22;8462;53.156;8.220;2022-12-20T16:42:53;13.40;92.30